ROMMA est une association bénévole à but non lucratif. Votre soutien est indispensable : ADHERER à ROMMA ou FAIRE un DON

Peyrus - (26, Drôme)

Vercors Ouest (430 m)   Longitude: 05°06'28"E   Latitude: 44°54'41"N Station partenaire n°83
 

Détail journalier du     <<     >>

Température Precipitation Humidité Pression Vent Dir Rafale Dir. rafale Second capteur de température situé à 410 m
Heure (°C) (mm) (%) (hPa) (km/h) (km/h) (°C)
01:00 8.207910193NNO19NNO8.3
02:00 8.007910195N18NNO8.3
03:00 7.907810186N21NNE7.2
04:00 6.808010182NNE18NNE6.7
05:00 6.108210184NO19N6.1
06:00 6.108010187N26NNO6.7
07:00 6.907610187N26NNE7.2
08:00 6.708310185N31N5.6
09:00 9.1076101811NNO24NNO8.3
10:00 11.8067101810N29N11.1
11:00 12.7068101812N34NNO12.2
12:00 13.8060101813N34N13.9
13:00 14.8056101811N39N14.4
14:00 15.4055101711N35N16.1
15:00 15.3059101712N32NNO15.6
16:00 15.6060101713N42NNO16.1
17:00 15.6061101612N32NO16.1
18:00 15.6062101614N34N16.7
19:00 15.2065101513N32N15.6
20:00 14.8067101510N31N15.0
21:00 14.306910167N27NNO14.4
22:00 13.707210165N26NNO13.9
23:00 12.407510165NE27NNE12.8
minuit 11.307910163N19NNO11.7

Graphique du 30-04-2019

 

Serveur OMMA